Terminal Aerodrome Forecast
Issued by NWS Amarillo, TX

Home | Current Version | Previous Version | Text Only | Print | Product List | Glossary On
Versions: 1 2 3 4 5 6 7 8 9 10 11 12 13 14 15 16 17
000
FTUS44 KAMA 261800 AAA
TAFAMA
TAF AMD
KAMA 261815Z 2618/2718 03015KT P6SM SCT015 BKN070
      TEMPO 2618/2620 5SM -SN OVC018
     FM270600 12015KT 5SM -SN OVC020
     FM270800 12016KT 2SM -SN OVC006=

USA.gov is the U.S. government's official web portal to all federal, state and local government web resources and services.